Time;durP1;ratioP1;P1;durP2;ratioP2;P2;SDS_P1;SDS_P2;PMS_P1;PMS_P2;Temp;Humidity;BMP_temperature;BMP_pressure;BME280_temperature;BME280_humidity;BME280_pressure;Samples;Min_cycle;Max_cycle;Signal;HPM_P1;HPM_P2
2021/03/04 00:01:57;;;;;;;34.47;24.03;;;7.00;99.90;;;;;;5094804;28;20173;-48
2021/03/04 00:04:23;;;;;;;33.37;24.57;;;7.00;99.90;;;;;;5080036;28;20186;-59
2021/03/04 00:06:48;;;;;;;29.53;23.83;;;7.00;99.90;;;;;;5076009;28;20249;-59
2021/03/04 00:09:14;;;;;;;33.53;24.97;;;7.00;99.90;;;;;;5080297;28;20518;-52
2021/03/04 00:11:39;;;;;;;29.17;23.47;;;7.00;99.90;;;;;;5088386;28;20183;-56
2021/03/04 00:14:05;;;;;;;31.03;23.50;;;6.90;99.90;;;;;;5077530;28;20186;-55
2021/03/04 00:16:30;;;;;;;29.87;23.57;;;6.90;99.90;;;;;;5076491;28;20203;-51
2021/03/04 00:18:56;;;;;;;32.23;24.20;;;6.90;99.90;;;;;;5091315;28;20309;-58
2021/03/04 00:21:21;;;;;;;29.83;23.87;;;6.90;99.90;;;;;;5092636;28;20243;-57
2021/03/04 00:23:47;;;;;;;34.00;24.83;;;6.90;99.90;;;;;;5076242;28;20673;-57
2021/03/04 00:26:12;;;;;;;31.03;24.03;;;6.80;99.90;;;;;;5088490;28;20202;-53
2021/03/04 00:28:38;;;;;;;38.70;29.27;;;6.80;99.90;;;;;;5093522;28;20182;-49
2021/03/04 00:31:03;;;;;;;37.63;28.90;;;6.70;99.90;;;;;;5076863;28;20206;-54
2021/03/04 00:33:29;;;;;;;35.93;27.37;;;6.70;99.90;;;;;;5076766;28;20235;-50
2021/03/04 00:35:55;;;;;;;36.73;27.97;;;6.80;99.90;;;;;;5076435;28;20203;-59
2021/03/04 00:38:21;;;;;;;35.33;25.80;;;6.80;99.90;;;;;;5095861;28;20237;-54
2021/03/04 00:40:46;;;;;;;32.43;25.27;;;6.80;99.90;;;;;;5077009;28;20209;-57
2021/03/04 00:43:12;;;;;;;32.97;25.30;;;6.70;99.90;;;;;;5078720;28;20185;-58
2021/03/04 00:45:38;;;;;;;31.53;24.83;;;6.70;99.90;;;;;;5095318;28;20206;-51
2021/03/04 00:48:05;;;;;;;35.27;25.53;;;6.70;99.90;;;;;;5094171;28;20184;-51
2021/03/04 00:50:31;;;;;;;31.97;24.67;;;6.70;99.90;;;;;;5075514;28;20179;-56
2021/03/04 00:52:56;;;;;;;32.43;23.73;;;6.70;99.90;;;;;;5089444;28;20181;-52
2021/03/04 00:55:22;;;;;;;30.93;24.07;;;6.70;99.90;;;;;;5094024;28;20202;-50
2021/03/04 00:57:47;;;;;;;33.23;24.13;;;6.80;99.90;;;;;;5094253;28;20213;-52
2021/03/04 01:00:13;;;;;;;32.10;23.90;;;6.70;99.90;;;;;;5085297;28;20202;-59
2021/03/04 01:02:39;;;;;;;31.47;24.17;;;6.70;99.90;;;;;;5073931;28;20178;-54
2021/03/04 01:05:05;;;;;;;32.90;24.90;;;6.70;99.90;;;;;;5075015;28;20289;-49
2021/03/04 01:07:32;;;;;;;29.73;22.83;;;6.70;99.90;;;;;;5077690;28;20179;-59
2021/03/04 01:09:58;;;;;;;33.53;24.77;;;6.70;99.90;;;;;;5093858;28;20197;-49
2021/03/04 01:12:23;;;;;;;32.70;24.60;;;6.60;99.90;;;;;;5093880;28;20192;-53
2021/03/04 01:14:49;;;;;;;32.47;25.20;;;6.50;99.90;;;;;;5074917;28;20686;-58
2021/03/04 01:17:15;;;;;;;32.47;24.33;;;6.50;99.90;;;;;;5088969;28;20205;-54
2021/03/04 01:19:41;;;;;;;32.67;24.80;;;6.50;99.90;;;;;;5075727;28;20539;-51
2021/03/04 01:22:06;;;;;;;32.33;23.90;;;6.50;99.90;;;;;;5075033;28;20186;-48
2021/03/04 01:24:32;;;;;;;31.63;23.80;;;6.60;99.90;;;;;;5074967;28;20182;-48
2021/03/04 01:26:58;;;;;;;29.70;23.53;;;6.60;99.90;;;;;;5088680;28;20189;-57
2021/03/04 01:29:24;;;;;;;32.60;23.93;;;6.60;99.90;;;;;;5093255;28;20193;-49
2021/03/04 01:31:49;;;;;;;30.73;22.90;;;6.70;99.90;;;;;;5087966;28;20186;-59
2021/03/04 01:34:15;;;;;;;31.70;24.23;;;6.70;99.90;;;;;;5087026;28;20194;-55
2021/03/04 01:36:40;;;;;;;31.93;24.70;;;6.70;99.90;;;;;;5074506;28;20209;-50
2021/03/04 01:39:07;;;;;;;29.43;24.17;;;6.70;99.90;;;;;;5079772;28;20205;-50
2021/03/04 01:41:32;;;;;;;30.70;23.27;;;6.70;99.90;;;;;;5093585;28;20260;-53
2021/03/04 01:43:58;;;;;;;31.23;23.83;;;6.70;99.90;;;;;;5080115;28;20578;-54
2021/03/04 01:46:24;;;;;;;29.63;23.53;;;6.70;99.90;;;;;;5084692;28;20198;-56
2021/03/04 01:48:51;;;;;;;31.70;24.70;;;6.70;99.90;;;;;;5086452;28;20186;-54
2021/03/04 01:51:16;;;;;;;30.33;23.27;;;6.70;99.90;;;;;;5076351;28;20201;-59
2021/03/04 01:53:43;;;;;;;30.33;23.90;;;6.70;99.90;;;;;;5080314;28;20189;-52
2021/03/04 01:56:09;;;;;;;32.63;24.60;;;6.70;99.90;;;;;;5074042;28;20198;-48
2021/03/04 01:58:35;;;;;;;31.87;23.73;;;6.70;99.90;;;;;;5074079;28;20263;-56
2021/03/04 02:04:22;;;;;;;32.57;23.43;;;6.60;99.90;;;;;;5089022;28;20176;-59
2021/03/04 02:06:59;;;;;;;31.17;22.77;;;6.60;99.90;;;;;;5073848;28;20269;-58
2021/03/04 02:09:25;;;;;;;28.93;22.70;;;6.60;99.90;;;;;;5075379;28;20194;-49
2021/03/04 02:11:55;;;;;;;29.73;22.57;;;6.60;99.90;;;;;;5075039;28;20178;-57
2021/03/04 02:14:39;;;;;;;32.07;23.80;;;6.60;99.90;;;;;;5076799;28;20190;-56
2021/03/04 02:17:08;;;;;;;30.47;22.77;;;6.60;99.90;;;;;;5094565;28;20181;-50
2021/03/04 02:19:46;;;;;;;29.40;23.83;;;6.60;99.90;;;;;;5089170;28;20170;-54
2021/03/04 02:22:45;;;;;;;29.10;22.30;;;6.60;99.90;;;;;;5081342;28;20266;-59
2021/03/04 02:25:20;;;;;;;31.57;24.13;;;6.60;99.90;;;;;;5094591;28;20182;-59
2021/03/04 02:27:49;;;;;;;31.47;23.40;;;6.60;99.90;;;;;;5079159;28;20205;-54
2021/03/04 02:30:19;;;;;;;29.50;22.43;;;6.50;99.90;;;;;;5074264;28;20198;-55
2021/03/04 02:32:49;;;;;;;30.50;23.70;;;6.50;99.90;;;;;;5073960;28;20178;-54
2021/03/04 02:35:28;;;;;;;31.93;23.23;;;6.60;99.90;;;;;;5073525;28;20221;-55
2021/03/04 02:37:57;;;;;;;29.93;23.40;;;6.60;99.90;;;;;;5074389;28;20577;-55
2021/03/04 02:40:25;;;;;;;30.23;23.73;;;6.50;99.90;;;;;;5072175;28;20178;-52
2021/03/04 02:42:52;;;;;;;30.43;23.67;;;6.60;99.90;;;;;;5074983;28;20180;-49
2021/03/04 02:45:22;;;;;;;31.10;24.50;;;6.50;99.90;;;;;;5074329;28;20183;-54
2021/03/04 02:47:48;;;;;;;30.47;24.33;;;6.50;99.90;;;;;;5082629;28;20208;-49
2021/03/04 02:50:14;;;;;;;30.27;23.60;;;6.50;99.90;;;;;;5093826;28;20251;-49
2021/03/04 02:52:40;;;;;;;31.50;24.53;;;6.60;99.90;;;;;;5092041;28;20181;-58
2021/03/04 02:55:07;;;;;;;29.00;23.60;;;6.60;99.90;;;;;;5083818;28;20210;-58
2021/03/04 02:57:34;;;;;;;31.37;24.47;;;6.60;99.90;;;;;;5073307;28;20202;-54
2021/03/04 03:00:00;;;;;;;31.07;23.53;;;6.60;99.90;;;;;;5080441;28;20219;-49
2021/03/04 03:02:28;;;;;;;30.20;23.73;;;6.50;99.90;;;;;;5092287;28;20197;-53
2021/03/04 03:04:56;;;;;;;30.70;23.33;;;6.50;99.90;;;;;;5087377;28;20209;-55
2021/03/04 03:07:23;;;;;;;31.17;23.60;;;6.50;99.90;;;;;;5073503;28;20214;-55
2021/03/04 03:09:49;;;;;;;30.70;24.03;;;6.10;99.90;;;;;;5075578;28;20194;-59
2021/03/04 03:12:16;;;;;;;28.03;22.60;;;6.50;99.90;;;;;;5093460;28;20174;-52
2021/03/04 03:14:42;;;;;;;28.80;23.27;;;6.50;99.90;;;;;;5089522;28;20210;-59
2021/03/04 03:17:08;;;;;;;30.77;22.93;;;6.60;99.90;;;;;;5073560;28;20180;-52
2021/03/04 03:19:34;;;;;;;28.23;23.00;;;6.60;99.90;;;;;;5074751;28;20182;-53
2021/03/04 03:22:00;;;;;;;30.43;23.40;;;6.60;99.90;;;;;;5073202;28;20526;-54
2021/03/04 03:24:26;;;;;;;30.07;23.57;;;6.60;99.90;;;;;;5074578;28;20220;-49
2021/03/04 03:26:52;;;;;;;32.00;23.70;;;6.60;99.90;;;;;;5074678;28;20183;-49
2021/03/04 03:29:17;;;;;;;33.90;24.53;;;6.60;99.90;;;;;;5085922;28;20182;-58
2021/03/04 03:31:47;;;;;;;30.93;23.83;;;6.60;99.90;;;;;;5073063;28;20673;-53
2021/03/04 03:34:13;;;;;;;31.87;24.13;;;6.70;99.90;;;;;;5076186;28;20182;-52
2021/03/04 03:36:39;;;;;;;29.83;23.13;;;6.60;99.90;;;;;;5092888;28;20270;-49
2021/03/04 03:39:07;;;;;;;28.07;23.17;;;6.50;99.90;;;;;;5091542;28;20649;-52
2021/03/04 03:41:34;;;;;;;31.17;23.47;;;6.40;99.90;;;;;;5075271;28;20683;-49
2021/03/04 03:44:00;;;;;;;30.63;24.37;;;6.40;99.90;;;;;;5092267;28;20162;-52
2021/03/04 03:46:30;;;;;;;30.57;24.20;;;6.30;99.90;;;;;;5073269;28;20194;-59
2021/03/04 03:48:56;;;;;;;30.57;23.83;;;6.30;99.90;;;;;;5083531;28;20182;-51
2021/03/04 03:51:22;;;;;;;32.17;25.27;;;6.20;99.90;;;;;;5096059;28;20533;-49
2021/03/04 03:53:48;;;;;;;32.20;24.77;;;6.10;99.90;;;;;;5079855;28;20269;-48
2021/03/04 03:56:14;;;;;;;33.93;24.23;;;6.10;99.90;;;;;;5086247;28;20206;-56
2021/03/04 03:58:40;;;;;;;30.63;24.67;;;6.10;99.90;;;;;;5087622;28;20202;-58
2021/03/04 04:01:07;;;;;;;34.90;24.63;;;6.20;99.90;;;;;;5081277;28;20186;-59
2021/03/04 04:03:34;;;;;;;28.97;23.57;;;6.20;99.90;;;;;;5095446;28;20178;-58
2021/03/04 04:06:01;;;;;;;33.13;26.33;;;6.30;99.90;;;;;;5092306;28;20252;-52
2021/03/04 04:08:29;;;;;;;31.40;24.37;;;6.30;99.90;;;;;;5077272;28;20257;-53
2021/03/04 04:10:54;;;;;;;31.53;25.07;;;6.30;99.90;;;;;;5076244;28;20190;-54
2021/03/04 04:13:21;;;;;;;34.10;25.73;;;6.40;99.90;;;;;;5076187;28;20175;-51
2021/03/04 04:15:47;;;;;;;32.33;25.33;;;6.40;99.90;;;;;;5076517;28;20260;-49
2021/03/04 04:18:13;;;;;;;35.07;27.67;;;6.40;99.90;;;;;;5079563;28;20202;-59
2021/03/04 04:20:39;;;;;;;31.10;24.87;;;6.40;99.90;;;;;;5078829;28;20541;-53
2021/03/04 04:23:06;;;;;;;31.50;25.47;;;6.50;99.90;;;;;;5085705;28;20253;-59
2021/03/04 04:25:56;;;;;;;32.60;26.13;;;6.50;99.90;;;;;;5085996;28;20198;-49
2021/03/04 04:28:22;;;;;;;31.90;24.57;;;6.40;99.90;;;;;;5084985;28;20249;-50
2021/03/04 04:30:47;;;;;;;32.20;24.53;;;6.30;99.90;;;;;;5085367;28;20684;-55
2021/03/04 04:33:14;;;;;;;29.07;23.20;;;6.30;99.90;;;;;;5086159;28;20205;-48
2021/03/04 04:35:39;;;;;;;30.83;24.53;;;6.30;99.90;;;;;;5085574;28;20208;-55
2021/03/04 04:38:05;;;;;;;31.33;24.27;;;6.10;99.90;;;;;;5084917;28;20198;-55
2021/03/04 04:40:31;;;;;;;29.70;23.97;;;6.10;99.90;;;;;;5082650;28;20634;-50
2021/03/04 04:42:56;;;;;;;30.80;23.10;;;6.20;99.90;;;;;;5082021;28;20253;-56
2021/03/04 04:45:22;;;;;;;28.03;22.67;;;6.20;99.90;;;;;;5085467;28;20237;-53
2021/03/04 04:47:47;;;;;;;26.40;23.00;;;6.30;99.90;;;;;;5084674;28;20228;-54
2021/03/04 04:50:13;;;;;;;29.30;22.93;;;6.40;99.90;;;;;;5085379;28;20182;-56
2021/03/04 04:52:38;;;;;;;28.83;22.87;;;6.40;99.90;;;;;;5084115;28;20179;-49
2021/03/04 04:55:05;;;;;;;29.00;23.83;;;6.40;99.90;;;;;;5087187;28;20276;-51
2021/03/04 04:57:30;;;;;;;31.23;23.63;;;6.50;99.90;;;;;;5085281;28;20297;-49
2021/03/04 04:59:56;;;;;;;30.30;23.37;;;6.50;99.90;;;;;;5083912;28;20234;-49
2021/03/04 05:02:21;;;;;;;30.93;24.70;;;6.40;99.90;;;;;;5085054;28;20257;-52
2021/03/04 05:04:47;;;;;;;30.33;23.33;;;6.40;99.90;;;;;;5084786;28;20281;-58
2021/03/04 05:07:12;;;;;;;27.50;22.67;;;6.50;99.90;;;;;;5084382;28;20281;-50
2021/03/04 05:09:38;;;;;;;30.57;23.43;;;6.50;99.90;;;;;;5081794;28;20272;-54
2021/03/04 05:12:04;;;;;;;31.30;24.67;;;6.50;99.90;;;;;;5075577;28;20279;-58
2021/03/04 05:14:30;;;;;;;28.03;22.93;;;6.40;99.90;;;;;;5075280;28;20202;-56
2021/03/04 05:16:55;;;;;;;28.27;23.50;;;6.40;99.90;;;;;;5077771;28;20180;-49
2021/03/04 05:19:21;;;;;;;51.13;42.60;;;6.40;99.90;;;;;;5074340;28;20276;-54
2021/03/04 05:21:46;;;;;;;33.50;27.23;;;6.30;99.90;;;;;;5076165;28;20268;-53
2021/03/04 05:24:12;;;;;;;30.60;24.97;;;6.40;99.90;;;;;;5095674;28;20622;-53
2021/03/04 05:26:37;;;;;;;32.10;25.20;;;6.40;99.90;;;;;;5084640;28;20202;-54
2021/03/04 05:29:04;;;;;;;31.17;23.43;;;6.40;99.90;;;;;;5077478;28;20193;-50
2021/03/04 05:31:30;;;;;;;31.30;24.30;;;6.50;99.90;;;;;;5093997;28;20196;-49
2021/03/04 05:33:56;;;;;;;30.13;23.17;;;6.50;99.90;;;;;;5079781;28;20187;-53
2021/03/04 05:36:22;;;;;;;31.23;24.13;;;6.40;99.90;;;;;;5074674;28;20208;-54
2021/03/04 05:38:48;;;;;;;28.43;23.43;;;6.10;99.90;;;;;;5084828;28;20276;-49
2021/03/04 05:41:21;;;;;;;26.03;21.30;;;6.00;99.90;;;;;;5089326;28;20189;-49
2021/03/04 05:43:47;;;;;;;27.83;20.83;;;5.80;99.90;;;;;;5093314;28;20197;-57
2021/03/04 05:46:14;;;;;;;28.23;22.40;;;5.70;99.90;;;;;;5092114;28;20202;-51
2021/03/04 05:48:43;;;;;;;29.23;22.43;;;5.90;99.90;;;;;;5075264;28;20182;-49
2021/03/04 05:51:13;;;;;;;28.27;22.73;;;5.90;99.90;;;;;;5077684;28;20186;-55
2021/03/04 05:53:45;;;;;;;28.73;22.57;;;6.00;99.90;;;;;;5076013;28;20187;-54
2021/03/04 05:56:15;;;;;;;28.87;22.17;;;6.00;99.90;;;;;;5078574;28;20199;-55
2021/03/04 05:58:42;;;;;;;28.63;22.43;;;6.10;99.90;;;;;;5078354;28;20287;-54
2021/03/04 06:01:08;;;;;;;27.73;22.67;;;6.20;99.90;;;;;;5080600;28;20169;-53
2021/03/04 06:03:34;;;;;;;28.57;22.57;;;6.30;99.90;;;;;;5094929;28;20541;-59
2021/03/04 06:05:59;;;;;;;29.50;23.13;;;6.40;99.90;;;;;;5086836;28;20205;-53
2021/03/04 06:08:25;;;;;;;29.63;21.87;;;6.40;99.90;;;;;;5091913;28;20182;-52
2021/03/04 06:10:50;;;;;;;27.57;22.60;;;6.40;99.90;;;;;;5085559;28;20213;-55
2021/03/04 06:13:16;;;;;;;28.47;22.27;;;6.30;99.90;;;;;;5073899;28;20182;-55
2021/03/04 06:15:42;;;;;;;31.43;23.53;;;6.10;99.90;;;;;;5084203;28;20204;-58
2021/03/04 06:18:07;;;;;;;31.20;23.13;;;6.00;99.90;;;;;;5079155;28;20201;-59
2021/03/04 06:20:37;;;;;;;33.20;26.87;;;5.90;99.90;;;;;;5077196;28;20199;-55
2021/03/04 06:23:03;;;;;;;32.93;29.27;;;5.90;99.90;;;;;;5077474;28;20202;-56
2021/03/04 06:25:29;;;;;;;32.07;26.27;;;5.90;99.90;;;;;;5093376;28;20190;-50
2021/03/04 06:27:55;;;;;;;32.40;26.83;;;5.80;99.90;;;;;;5088202;28;20668;-49
2021/03/04 06:30:21;;;;;;;32.63;25.53;;;5.60;99.90;;;;;;5074311;28;20170;-55
2021/03/04 06:32:59;;;;;;;27.47;23.20;;;5.70;99.90;;;;;;5077334;28;20194;-56
2021/03/04 06:35:37;;;;;;;28.60;22.20;;;5.70;99.90;;;;;;5093716;28;20557;-51
2021/03/04 06:38:19;;;;;;;26.13;21.43;;;5.90;99.90;;;;;;5085776;28;20628;-53
2021/03/04 06:40:46;;;;;;;27.10;21.70;;;5.90;99.90;;;;;;5085507;28;20169;-57
2021/03/04 06:43:21;;;;;;;26.00;21.97;;;6.00;99.90;;;;;;5094000;28;20172;-56
2021/03/04 06:45:46;;;;;;;27.23;21.07;;;6.10;99.90;;;;;;5093739;28;20198;-50
2021/03/04 06:48:16;;;;;;;26.57;21.27;;;6.10;99.90;;;;;;5094778;28;20648;-52
2021/03/04 06:50:44;;;;;;;27.67;22.50;;;6.10;99.90;;;;;;5093809;28;20166;-50
2021/03/04 06:53:11;;;;;;;26.00;21.33;;;6.10;99.90;;;;;;5093702;28;20181;-50
2021/03/04 06:55:47;;;;;;;26.63;21.57;;;6.20;99.90;;;;;;5093966;28;20641;-59
2021/03/04 06:58:12;;;;;;;26.33;21.83;;;6.40;99.90;;;;;;5094226;28;20326;-58
2021/03/04 07:00:38;;;;;;;29.57;23.37;;;6.40;99.90;;;;;;5081701;28;20280;-54
2021/03/04 07:03:03;;;;;;;26.67;21.23;;;6.50;99.90;;;;;;5082772;28;20212;-58
2021/03/04 07:05:29;;;;;;;30.10;22.83;;;6.60;99.90;;;;;;5083775;28;20190;-58
2021/03/04 07:07:56;;;;;;;25.70;21.67;;;6.70;99.90;;;;;;5083070;28;20224;-58
2021/03/04 07:10:24;;;;;;;28.53;21.30;;;6.60;99.90;;;;;;5083937;28;20195;-58
2021/03/04 07:12:51;;;;;;;26.90;20.40;;;6.70;99.90;;;;;;5081892;28;20511;-49
2021/03/04 07:15:18;;;;;;;28.50;21.57;;;6.70;99.90;;;;;;5083203;28;20224;-59
2021/03/04 07:17:47;;;;;;;29.63;23.37;;;6.70;99.90;;;;;;5084094;28;20194;-55
2021/03/04 07:20:15;;;;;;;29.10;22.20;;;6.70;99.90;;;;;;5080821;28;20182;-58
2021/03/04 07:22:46;;;;;;;24.67;20.07;;;6.50;99.90;;;;;;5083446;28;20231;-50
2021/03/04 07:25:13;;;;;;;26.50;20.90;;;6.20;99.90;;;;;;5084509;28;20193;-59
2021/03/04 07:27:39;;;;;;;24.43;20.10;;;5.90;99.90;;;;;;5084579;28;20205;-55
2021/03/04 07:30:10;;;;;;;26.50;20.97;;;5.80;99.90;;;;;;5083934;28;20186;-55
2021/03/04 07:32:36;;;;;;;24.97;20.60;;;5.80;99.90;;;;;;5084442;28;20212;-54
2021/03/04 07:35:11;;;;;;;27.00;20.93;;;5.80;99.90;;;;;;5087475;28;20220;-54
2021/03/04 07:37:41;;;;;;;25.97;21.40;;;5.70;99.90;;;;;;5087360;28;20185;-54
2021/03/04 07:40:08;;;;;;;26.40;22.40;;;5.70;99.90;;;;;;5085514;28;20195;-49
2021/03/04 07:42:34;;;;;;;25.27;21.80;;;5.70;99.90;;;;;;5084297;28;20178;-60
2021/03/04 07:45:10;;;;;;;30.87;24.57;;;5.70;99.90;;;;;;5084568;28;20210;-54
2021/03/04 07:47:36;;;;;;;26.63;22.10;;;5.70;99.90;;;;;;5087253;28;20181;-59
2021/03/04 07:50:12;;;;;;;28.70;23.67;;;5.70;99.90;;;;;;5088146;28;20649;-59
2021/03/04 07:52:38;;;;;;;30.33;24.43;;;5.80;99.90;;;;;;5084874;28;20549;-49
2021/03/04 07:55:12;;;;;;;29.20;24.40;;;5.60;99.90;;;;;;5086530;28;20285;-53
2021/03/04 07:57:45;;;;;;;30.53;25.67;;;5.50;99.90;;;;;;5086284;28;20247;-52
2021/03/04 08:00:11;;;;;;;25.73;22.37;;;5.50;99.90;;;;;;5082393;28;20253;-50
2021/03/04 08:02:38;;;;;;;27.97;22.60;;;5.60;99.90;;;;;;5082411;28;20186;-60
2021/03/04 08:05:14;;;;;;;28.57;22.13;;;5.70;99.90;;;;;;5086307;28;20202;-57
2021/03/04 08:07:42;;;;;;;26.53;22.73;;;5.80;99.90;;;;;;5083072;28;20549;-51
2021/03/04 08:10:41;;;;;;;29.57;22.80;;;5.90;99.90;;;;;;5087701;28;20190;-50
2021/03/04 08:13:07;;;;;;;27.53;22.00;;;5.80;99.90;;;;;;5076226;28;20273;-52
2021/03/04 08:15:40;;;;;;;29.17;22.40;;;5.80;99.90;;;;;;5076240;28;20254;-53
2021/03/04 08:18:21;;;;;;;29.60;24.03;;;5.70;99.90;;;;;;5077189;28;20281;-53
2021/03/04 08:20:48;;;;;;;31.63;22.70;;;5.60;99.90;;;;;;5088946;28;20647;-53
2021/03/04 08:23:18;;;;;;;29.30;22.20;;;5.40;99.90;;;;;;5116606;28;20177;-49
2021/03/04 08:25:44;;;;;;;27.93;22.07;;;5.30;99.90;;;;;;5117366;28;20212;-53
2021/03/04 08:28:20;;;;;;;28.07;21.83;;;5.30;99.90;;;;;;5109325;28;20175;-51
2021/03/04 08:30:46;;;;;;;26.00;20.67;;;5.30;99.90;;;;;;5085374;28;20235;-55
2021/03/04 08:33:12;;;;;;;26.80;22.30;;;5.30;99.90;;;;;;5095977;28;20205;-58
2021/03/04 08:35:41;;;;;;;30.63;24.37;;;5.30;99.90;;;;;;5096167;28;20262;-57
2021/03/04 08:38:10;;;;;;;28.90;23.87;;;5.30;99.90;;;;;;5095037;28;20561;-53
2021/03/04 08:40:43;;;;;;;31.77;25.67;;;5.20;99.90;;;;;;5090178;28;20665;-54
2021/03/04 08:43:14;;;;;;;29.13;24.60;;;5.10;99.90;;;;;;5090106;28;20174;-49
2021/03/04 08:45:41;;;;;;;31.33;24.23;;;5.20;99.90;;;;;;5083967;28;20198;-49
2021/03/04 08:48:08;;;;;;;28.70;24.33;;;5.20;99.90;;;;;;5086592;28;20236;-58
2021/03/04 08:50:46;;;;;;;28.47;23.03;;;5.20;99.90;;;;;;5092657;27;20225;-59
2021/03/04 08:53:19;;;;;;;28.53;21.33;;;5.30;99.90;;;;;;5094734;28;20221;-57
2021/03/04 08:55:46;;;;;;;27.93;21.83;;;5.50;99.90;;;;;;5090784;28;20190;-52
2021/03/04 08:58:12;;;;;;;26.93;22.33;;;5.60;99.90;;;;;;5093072;28;20194;-49
2021/03/04 09:00:38;;;;;;;26.97;20.93;;;5.80;99.90;;;;;;5094338;28;20240;-53
2021/03/04 09:03:11;;;;;;;25.03;20.93;;;5.90;99.90;;;;;;5092585;28;20169;-56
2021/03/04 09:05:38;;;;;;;26.07;19.83;;;6.00;99.90;;;;;;5079824;28;20674;-50
2021/03/04 09:08:11;;;;;;;26.27;20.33;;;6.10;99.90;;;;;;5084000;28;20186;-55
2021/03/04 09:10:44;;;;;;;26.33;20.27;;;6.30;99.90;;;;;;5072968;28;20201;-55
2021/03/04 09:13:11;;;;;;;23.70;17.87;;;6.60;99.90;;;;;;5088997;28;20191;-54
2021/03/04 09:15:42;;;;;;;24.93;18.50;;;6.70;99.90;;;;;;5094991;28;20205;-48
2021/03/04 09:18:09;;;;;;;23.23;18.37;;;6.80;99.90;;;;;;5094440;28;20213;-52
2021/03/04 09:20:35;;;;;;;22.43;17.47;;;7.10;99.90;;;;;;5084282;28;20484;-52
2021/03/04 09:23:32;;;;;;;19.60;16.60;;;7.30;99.90;;;;;;5070746;28;20178;-56
2021/03/04 09:25:58;;;;;;;20.13;16.70;;;7.50;99.90;;;;;;5088933;28;20205;-58
2021/03/04 09:28:24;;;;;;;20.47;17.17;;;7.70;99.90;;;;;;5090394;28;20178;-55
2021/03/04 09:30:50;;;;;;;19.10;17.00;;;7.90;99.90;;;;;;5092088;28;20541;-54
2021/03/04 09:33:24;;;;;;;18.45;16.55;;;7.80;99.90;;;;;;5078912;28;20418;-56
2021/03/04 09:36:01;;;;;;;17.77;15.43;;;8.00;99.90;;;;;;5094175;28;20303;-49
2021/03/04 09:38:29;;;;;;;18.93;16.40;;;8.20;99.90;;;;;;5088276;28;20201;-53
2021/03/04 09:41:06;;;;;;;18.03;15.97;;;8.30;99.90;;;;;;5085939;28;20630;-56
2021/03/04 09:43:42;;;;;;;20.20;15.83;;;8.40;99.90;;;;;;5085074;28;20247;-51
2021/03/04 09:46:07;;;;;;;18.70;16.20;;;8.40;99.90;;;;;;5072643;28;20190;-54
2021/03/04 09:48:37;;;;;;;23.47;16.87;;;8.40;99.90;;;;;;5074504;28;20202;-48
2021/03/04 09:51:03;;;;;;;23.03;17.73;;;8.40;99.90;;;;;;5091935;28;20181;-53
2021/03/04 09:53:29;;;;;;;22.50;16.50;;;8.40;99.90;;;;;;5094093;28;20178;-52
2021/03/04 09:55:54;;;;;;;21.30;19.10;;;8.50;99.90;;;;;;5078169;28;20462;-51
2021/03/04 09:58:24;;;;;;;24.00;18.37;;;8.60;99.90;;;;;;5079364;28;20233;-50
2021/03/04 10:00:58;;;;;;;19.90;17.20;;;8.50;99.90;;;;;;5088912;28;20231;-56
2021/03/04 10:03:35;;;;;;;23.93;18.50;;;8.60;99.90;;;;;;5090536;28;20211;-59
2021/03/04 10:06:01;;;;;;;20.77;17.50;;;8.80;99.90;;;;;;5093324;28;20235;-54
2021/03/04 10:08:37;;;;;;;18.37;15.80;;;8.90;99.90;;;;;;5093672;28;20174;-60
2021/03/04 10:11:02;;;;;;;19.23;17.17;;;9.00;99.90;;;;;;5091962;28;20269;-56
2021/03/04 10:13:29;;;;;;;22.93;18.40;;;9.00;99.90;;;;;;5093192;28;20244;-59
2021/03/04 10:15:55;;;;;;;20.03;17.17;;;9.00;99.90;;;;;;5092991;28;20734;-58
2021/03/04 10:18:21;;;;;;;24.87;16.90;;;9.10;99.90;;;;;;5082815;28;20225;-53
2021/03/04 10:20:47;;;;;;;20.37;16.43;;;9.00;99.90;;;;;;5079364;28;20271;-61
2021/03/04 10:23:14;;;;;;;22.90;17.70;;;8.90;99.90;;;;;;5073498;28;20175;-57
2021/03/04 10:25:41;;;;;;;19.87;17.30;;;8.90;99.90;;;;;;5071106;28;20190;-53
2021/03/04 10:28:07;;;;;;;18.77;16.77;;;9.00;99.90;;;;;;5070657;28;20177;-60
2021/03/04 10:30:35;;;;;;;23.60;17.93;;;9.00;99.90;;;;;;5079732;28;20244;-52
2021/03/04 10:33:01;;;;;;;21.70;18.13;;;9.10;99.90;;;;;;5091623;28;20190;-60
2021/03/04 10:35:27;;;;;;;20.07;17.90;;;9.00;99.90;;;;;;5092849;28;20190;-57
2021/03/04 10:37:53;;;;;;;20.67;16.83;;;9.20;99.90;;;;;;5091132;28;20247;-52
2021/03/04 10:40:20;;;;;;;19.63;16.40;;;9.20;99.90;;;;;;5093212;28;20187;-59
2021/03/04 10:42:46;;;;;;;20.30;17.27;;;9.30;99.90;;;;;;5093219;28;20631;-51
2021/03/04 10:45:15;;;;;;;21.50;17.70;;;9.30;99.90;;;;;;5089798;28;20783;-58
2021/03/04 10:47:41;;;;;;;22.33;16.87;;;9.30;99.90;;;;;;5083984;28;20214;-54
2021/03/04 10:50:11;;;;;;;17.67;15.57;;;9.30;99.90;;;;;;5073464;28;20520;-52
2021/03/04 10:52:37;;;;;;;19.43;16.27;;;9.40;99.90;;;;;;5086693;28;20181;-59
2021/03/04 10:55:04;;;;;;;18.63;16.63;;;9.50;99.90;;;;;;5093551;28;20209;-50
2021/03/04 10:57:30;;;;;;;18.80;16.30;;;9.50;99.90;;;;;;5093046;28;20259;-55
2021/03/04 10:59:56;;;;;;;19.60;16.43;;;9.40;99.90;;;;;;5094801;28;20274;-48
2021/03/04 11:02:22;;;;;;;19.57;15.73;;;9.50;99.90;;;;;;5097556;28;20173;-49
2021/03/04 11:04:47;;;;;;;18.30;15.63;;;9.50;99.90;;;;;;5088746;27;20669;-57
2021/03/04 11:07:13;;;;;;;21.93;17.07;;;9.50;99.90;;;;;;5116184;28;20169;-57
2021/03/04 11:09:39;;;;;;;20.77;16.67;;;9.50;99.90;;;;;;5091505;27;20262;-54
2021/03/04 11:12:05;;;;;;;20.40;16.90;;;9.70;99.90;;;;;;5076760;28;20262;-49
2021/03/04 11:14:30;;;;;;;18.50;16.20;;;9.80;99.90;;;;;;5076964;28;20182;-49
2021/03/04 11:16:56;;;;;;;19.83;15.87;;;10.00;99.90;;;;;;5088185;28;20188;-52
2021/03/04 11:19:21;;;;;;;22.03;18.00;;;10.10;99.90;;;;;;5085966;28;20678;-59
2021/03/04 11:21:47;;;;;;;18.47;16.33;;;10.00;99.90;;;;;;5088043;28;20185;-49
2021/03/04 11:24:13;;;;;;;24.27;16.17;;;9.90;99.90;;;;;;5093279;28;20185;-51
2021/03/04 11:26:40;;;;;;;22.83;17.43;;;9.90;99.90;;;;;;5086445;28;20224;-49
2021/03/04 11:29:09;;;;;;;18.93;16.93;;;9.90;99.90;;;;;;5083801;28;20182;-49
2021/03/04 11:31:36;;;;;;;19.50;17.50;;;10.00;99.90;;;;;;5082403;28;20262;-49
2021/03/04 11:34:02;;;;;;;20.57;17.53;;;10.10;99.90;;;;;;5088244;28;20186;-59
2021/03/04 11:36:33;;;;;;;20.23;17.03;;;10.30;99.90;;;;;;5077753;28;20229;-59
2021/03/04 11:38:59;;;;;;;18.10;16.20;;;10.50;99.90;;;;;;5076616;28;20202;-52
2021/03/04 11:41:25;;;;;;;19.43;17.03;;;10.80;99.90;;;;;;5081712;28;20169;-59
2021/03/04 11:43:51;;;;;;;22.80;16.23;;;11.00;99.90;;;;;;5086757;28;20189;-54
2021/03/04 11:46:18;;;;;;;18.73;16.80;;;11.20;99.90;;;;;;5084063;28;20214;-57
2021/03/04 11:48:44;;;;;;;21.23;16.60;;;11.20;99.90;;;;;;5077657;28;20208;-49
2021/03/04 11:51:10;;;;;;;19.00;15.60;;;11.00;99.90;;;;;;5079108;28;20198;-54
2021/03/04 11:53:35;;;;;;;20.43;17.40;;;10.90;99.90;;;;;;5096367;28;20178;-57
2021/03/04 11:56:01;;;;;;;21.00;16.50;;;10.90;99.90;;;;;;5096532;28;20604;-54
2021/03/04 11:58:27;;;;;;;19.43;16.77;;;10.80;99.90;;;;;;5096550;28;20202;-53
2021/03/04 12:00:53;;;;;;;18.57;16.57;;;11.10;99.90;;;;;;5085656;28;20187;-51
2021/03/04 12:03:19;;;;;;;20.73;16.17;;;11.30;99.90;;;;;;5094836;28;20170;-48
2021/03/04 12:05:45;;;;;;;19.50;16.60;;;11.30;99.90;;;;;;5080990;28;20197;-55
2021/03/04 12:08:11;;;;;;;18.77;15.43;;;11.40;99.90;;;;;;5095882;28;20178;-53
2021/03/04 12:10:37;;;;;;;21.50;16.57;;;11.40;99.90;;;;;;5094381;28;20645;-59
2021/03/04 12:13:03;;;;;;;18.10;16.00;;;11.40;99.90;;;;;;5089391;28;20217;-49
2021/03/04 12:15:29;;;;;;;19.53;17.40;;;11.40;99.90;;;;;;5085291;28;20289;-51
2021/03/04 12:17:54;;;;;;;19.67;17.17;;;11.20;99.90;;;;;;5091586;28;20277;-58
2021/03/04 12:20:20;;;;;;;19.53;16.90;;;11.20;99.90;;;;;;5093874;28;20178;-58
2021/03/04 12:22:45;;;;;;;18.57;16.57;;;11.00;99.90;;;;;;5087988;28;20181;-57
2021/03/04 12:25:11;;;;;;;18.27;16.37;;;11.20;99.90;;;;;;5099437;28;20205;-53
2021/03/04 12:27:36;;;;;;;20.87;17.50;;;11.20;99.90;;;;;;5093464;28;20646;-49
2021/03/04 12:30:03;;;;;;;18.40;16.40;;;11.40;99.90;;;;;;5091514;28;20186;-52
2021/03/04 12:32:29;;;;;;;20.13;15.87;;;11.70;99.90;;;;;;5098264;28;20173;-59
2021/03/04 12:34:54;;;;;;;18.67;15.60;;;12.30;99.90;;;;;;5099737;28;20232;-52
2021/03/04 12:37:20;;;;;;;16.93;15.23;;;13.80;99.90;;;;;;5093031;28;20193;-58
2021/03/04 12:39:45;;;;;;;17.70;15.03;;;15.70;99.90;;;;;;5092680;28;20302;-56
2021/03/04 12:42:11;;;;;;;15.77;14.17;;;17.90;98.30;;;;;;5093061;28;20630;-52